Time;durP1;ratioP1;P1;durP2;ratioP2;P2;SDS_P1;SDS_P2;PMS_P1;PMS_P2;Temp;Humidity;BMP_temperature;BMP_pressure;BME280_temperature;BME280_humidity;BME280_pressure;Samples;Min_cycle;Max_cycle;Signal;HPM_P1;HPM_P2
2022/03/16 00:00:50;;;;;;;11.90;5.13;;;;;;;;;;5036525;28;20947;-77
2022/03/16 00:03:17;;;;;;;12.77;5.77;;;;;;;;;;5036575;28;20461;-77
2022/03/16 00:05:43;;;;;;;12.53;5.33;;;;;;;;;;5036311;28;20882;-77
2022/03/16 00:08:11;;;;;;;12.90;5.23;;;;;;;;;;5036613;28;20789;-76
2022/03/16 00:10:37;;;;;;;11.23;5.73;;;;;;;;;;5035509;28;20394;-76
2022/03/16 00:13:04;;;;;;;10.37;6.30;;;;;;;;;;5036743;28;20402;-76
2022/03/16 00:15:30;;;;;;;15.53;6.20;;;;;;;;;;5036393;28;20402;-76
2022/03/16 00:17:56;;;;;;;14.60;6.53;;;;;;;;;;5036300;28;20429;-76
2022/03/16 00:20:22;;;;;;;11.13;6.97;;;;;;;;;;5036570;28;20403;-77
2022/03/16 00:22:48;;;;;;;12.90;7.43;;;;;;;;;;5036984;28;20437;-77
2022/03/16 00:25:14;;;;;;;16.10;6.53;;;;;;;;;;5037161;28;20413;-77
2022/03/16 00:27:41;;;;;;;13.33;7.60;;;;;;;;;;5036867;28;20472;-77
2022/03/16 00:30:07;;;;;;;12.83;7.23;;;;;;;;;;5036522;28;20421;-77
2022/03/16 00:32:33;;;;;;;12.80;8.00;;;;;;;;;;5036479;28;20816;-77
2022/03/16 00:34:59;;;;;;;12.13;7.00;;;;;;;;;;5036353;28;20421;-77
2022/03/16 00:37:27;;;;;;;12.90;8.27;;;;;;;;;;5036364;28;20456;-77
2022/03/16 00:39:53;;;;;;;19.47;8.97;;;;;;;;;;5036378;28;20425;-77
2022/03/16 00:42:19;;;;;;;12.70;9.10;;;;;;;;;;5036316;28;20407;-77
2022/03/16 00:44:45;;;;;;;12.00;8.50;;;;;;;;;;5035935;28;20449;-77
2022/03/16 00:47:11;;;;;;;13.70;8.77;;;;;;;;;;5036058;28;20445;-77
2022/03/16 00:49:37;;;;;;;20.53;9.17;;;;;;;;;;5036220;28;20441;-78
2022/03/16 00:52:04;;;;;;;9.80;8.00;;;;;;;;;;5035823;28;20406;-77
2022/03/16 00:54:30;;;;;;;14.53;9.10;;;;;;;;;;5034490;28;20434;-77
2022/03/16 00:56:56;;;;;;;16.93;7.93;;;;;;;;;;5035765;28;20413;-77
2022/03/16 00:59:23;;;;;;;14.10;9.77;;;;;;;;;;5034447;28;20841;-77
2022/03/16 01:01:49;;;;;;;12.33;8.87;;;;;;;;;;5035934;28;20402;-77
2022/03/16 01:04:15;;;;;;;12.50;8.20;;;;;;;;;;5034420;28;20446;-77
2022/03/16 01:06:41;;;;;;;16.33;8.50;;;;;;;;;;5034864;28;20398;-77
2022/03/16 01:09:07;;;;;;;21.57;9.43;;;;;;;;;;5035731;28;20414;-76
2022/03/16 01:11:33;;;;;;;13.70;9.70;;;;;;;;;;5035769;28;20403;-77
2022/03/16 01:13:59;;;;;;;15.50;10.37;;;;;;;;;;5035757;28;20406;-77
2022/03/16 01:16:25;;;;;;;20.63;12.60;;;;;;;;;;5038042;28;20402;-77
2022/03/16 01:18:51;;;;;;;28.23;12.50;;;;;;;;;;5039049;28;20433;-77
2022/03/16 01:21:17;;;;;;;19.80;12.53;;;;;;;;;;5038885;28;20410;-77
2022/03/16 01:23:43;;;;;;;16.73;13.20;;;;;;;;;;5035371;28;20451;-77
2022/03/16 01:26:09;;;;;;;18.90;13.60;;;;;;;;;;5035868;28;20408;-77
2022/03/16 01:28:36;;;;;;;17.87;13.07;;;;;;;;;;5035741;28;20465;-77
2022/03/16 01:31:02;;;;;;;21.00;12.90;;;;;;;;;;5049181;28;20808;-77
2022/03/16 01:33:28;;;;;;;18.20;13.77;;;;;;;;;;5038314;28;20900;-77
2022/03/16 01:35:54;;;;;;;21.63;14.90;;;;;;;;;;5035750;28;20886;-77
2022/03/16 01:38:20;;;;;;;25.17;15.67;;;;;;;;;;5035315;28;20887;-77
2022/03/16 01:40:46;;;;;;;18.20;14.30;;;;;;;;;;5036522;28;20405;-77
2022/03/16 01:43:12;;;;;;;20.03;14.13;;;;;;;;;;5036591;28;20442;-77
2022/03/16 01:45:45;;;;;;;18.47;14.27;;;;;;;;;;5036250;28;20494;-77
2022/03/16 01:48:11;;;;;;;15.97;12.90;;;;;;;;;;5036375;28;20442;-77
2022/03/16 01:50:37;;;;;;;25.43;14.97;;;;;;;;;;5035807;28;20466;-77
2022/03/16 01:53:03;;;;;;;22.77;15.90;;;;;;;;;;5034936;28;20456;-77
2022/03/16 01:55:29;;;;;;;20.20;15.60;;;;;;;;;;5034840;28;20399;-77
2022/03/16 01:57:56;;;;;;;18.60;15.40;;;;;;;;;;5034493;28;20433;-77
2022/03/16 02:00:22;;;;;;;24.03;16.20;;;;;;;;;;5034586;28;20774;-77
2022/03/16 02:02:48;;;;;;;29.20;15.80;;;;;;;;;;5034601;28;20929;-77
2022/03/16 02:05:14;;;;;;;19.90;15.37;;;;;;;;;;5035194;28;20918;-77
2022/03/16 02:07:43;;;;;;;21.13;16.80;;;;;;;;;;5034788;28;20429;-77
2022/03/16 02:10:09;;;;;;;20.67;16.07;;;;;;;;;;5035122;28;20790;-77
2022/03/16 02:12:49;;;;;;;24.80;18.10;;;;;;;;;;5034712;28;20772;-77
2022/03/16 02:15:15;;;;;;;21.70;17.47;;;;;;;;;;5034638;28;20836;-77
2022/03/16 02:17:41;;;;;;;21.00;16.30;;;;;;;;;;5033945;28;20422;-78
2022/03/16 02:20:08;;;;;;;23.03;17.20;;;;;;;;;;5034502;28;20879;-77
2022/03/16 02:22:42;;;;;;;21.20;16.87;;;;;;;;;;5034324;28;20421;-77
2022/03/16 02:25:09;;;;;;;23.03;17.47;;;;;;;;;;5032687;28;20414;-76
2022/03/16 02:27:38;;;;;;;27.33;19.57;;;;;;;;;;5032890;28;20431;-76
2022/03/16 02:30:04;;;;;;;24.70;18.07;;;;;;;;;;5034165;28;20394;-76
2022/03/16 02:32:30;;;;;;;22.37;18.90;;;;;;;;;;5033622;28;20395;-76
2022/03/16 02:34:56;;;;;;;22.03;17.60;;;;;;;;;;5034455;28;20398;-77
2022/03/16 02:37:26;;;;;;;25.37;19.60;;;;;;;;;;5034130;28;20426;-76
2022/03/16 02:39:52;;;;;;;24.20;18.30;;;;;;;;;;5020123;28;20423;-77
2022/03/16 02:42:18;;;;;;;26.00;19.00;;;;;;;;;;5013794;28;20490;-77
2022/03/16 02:44:45;;;;;;;27.53;19.57;;;;;;;;;;5014186;28;20451;-77
2022/03/16 02:47:11;;;;;;;28.77;18.87;;;;;;;;;;5014122;28;20419;-77
2022/03/16 02:49:37;;;;;;;25.83;19.03;;;;;;;;;;5021107;28;20450;-77
2022/03/16 02:52:07;;;;;;;23.40;18.93;;;;;;;;;;5016747;28;20997;-77
2022/03/16 02:54:33;;;;;;;23.20;17.57;;;;;;;;;;5012553;28;20415;-77
2022/03/16 02:57:00;;;;;;;25.23;18.83;;;;;;;;;;5014830;28;20408;-77
2022/03/16 02:59:26;;;;;;;24.37;19.40;;;;;;;;;;5014829;28;20835;-77
2022/03/16 03:01:52;;;;;;;25.03;18.30;;;;;;;;;;5013986;28;20399;-77
2022/03/16 03:04:18;;;;;;;26.70;18.43;;;;;;;;;;5019149;28;20450;-77
2022/03/16 03:06:44;;;;;;;27.67;18.87;;;;;;;;;;5028900;28;20450;-76
2022/03/16 03:09:10;;;;;;;25.23;20.10;;;;;;;;;;5016219;28;20416;-76
2022/03/16 03:11:37;;;;;;;27.37;20.50;;;;;;;;;;5013922;28;20438;-77
2022/03/16 03:14:03;;;;;;;28.43;20.53;;;;;;;;;;5013720;28;20446;-77
2022/03/16 03:16:29;;;;;;;34.10;21.50;;;;;;;;;;5013717;28;20899;-77
2022/03/16 03:18:55;;;;;;;30.03;22.30;;;;;;;;;;5013748;28;20554;-77
2022/03/16 03:21:21;;;;;;;40.53;23.27;;;;;;;;;;5014035;28;20407;-77
2022/03/16 03:23:47;;;;;;;35.10;24.23;;;;;;;;;;5012337;28;20462;-77
2022/03/16 03:26:13;;;;;;;33.27;23.30;;;;;;;;;;5013538;28;20423;-77
2022/03/16 03:28:39;;;;;;;37.63;23.93;;;;;;;;;;5013069;28;20485;-77
2022/03/16 03:31:05;;;;;;;34.90;23.53;;;;;;;;;;5013441;28;20494;-77
2022/03/16 03:33:31;;;;;;;40.30;24.23;;;;;;;;;;5013465;28;20438;-77
2022/03/16 03:35:57;;;;;;;35.47;23.33;;;;;;;;;;5013357;28;20404;-77
2022/03/16 03:38:23;;;;;;;39.10;25.07;;;;;;;;;;5013365;28;20424;-77
2022/03/16 03:40:50;;;;;;;37.27;23.70;;;;;;;;;;5011955;28;20469;-77
2022/03/16 03:43:16;;;;;;;36.83;24.17;;;;;;;;;;5012041;28;20457;-77
2022/03/16 03:45:42;;;;;;;35.57;24.33;;;;;;;;;;5013341;28;20458;-77
2022/03/16 03:48:08;;;;;;;41.43;24.30;;;;;;;;;;5013087;28;20439;-77
2022/03/16 03:50:34;;;;;;;35.13;23.73;;;;;;;;;;5013188;28;20439;-77
2022/03/16 03:53:00;;;;;;;34.60;23.20;;;;;;;;;;5013521;28;20548;-77
2022/03/16 03:55:26;;;;;;;35.20;23.57;;;;;;;;;;5013139;28;20426;-77
2022/03/16 03:57:53;;;;;;;34.80;21.80;;;;;;;;;;5012979;28;20457;-77
2022/03/16 04:00:19;;;;;;;34.10;23.40;;;;;;;;;;5013191;28;20892;-76
2022/03/16 04:02:49;;;;;;;30.63;20.50;;;;;;;;;;5013034;28;20407;-76
2022/03/16 04:05:17;;;;;;;31.97;22.83;;;;;;;;;;5012699;28;20899;-76
2022/03/16 04:07:43;;;;;;;29.10;22.53;;;;;;;;;;5012838;28;20438;-77
2022/03/16 04:10:09;;;;;;;31.80;21.90;;;;;;;;;;5019564;28;20786;-76
2022/03/16 04:12:35;;;;;;;35.97;22.70;;;;;;;;;;5016558;28;20402;-76
2022/03/16 04:15:01;;;;;;;31.73;22.90;;;;;;;;;;5015929;28;20426;-77
2022/03/16 04:17:27;;;;;;;29.10;19.93;;;;;;;;;;5019587;28;20464;-76
2022/03/16 04:19:53;;;;;;;25.70;17.50;;;;;;;;;;5032895;28;20394;-76
2022/03/16 04:22:20;;;;;;;25.57;18.27;;;;;;;;;;5032515;28;20403;-77
2022/03/16 04:24:46;;;;;;;26.97;18.63;;;;;;;;;;5032369;28;20513;-76
2022/03/16 04:27:12;;;;;;;24.83;17.70;;;;;;;;;;5032471;28;20406;-76
2022/03/16 04:29:38;;;;;;;26.00;18.30;;;;;;;;;;5032312;28;20410;-76
2022/03/16 04:32:04;;;;;;;25.93;17.70;;;;;;;;;;5032148;28;20402;-76
2022/03/16 04:34:30;;;;;;;27.50;19.33;;;;;;;;;;5032308;28;20395;-76
2022/03/16 04:36:56;;;;;;;29.00;21.20;;;;;;;;;;5031109;28;20413;-77
2022/03/16 04:39:22;;;;;;;25.07;17.97;;;;;;;;;;5032321;28;20466;-76
2022/03/16 04:41:48;;;;;;;27.27;18.53;;;;;;;;;;5035804;28;20917;-76
2022/03/16 04:44:14;;;;;;;28.27;20.17;;;;;;;;;;5035646;28;20544;-77
2022/03/16 04:46:40;;;;;;;29.20;21.07;;;;;;;;;;5034497;28;20453;-77
2022/03/16 04:49:07;;;;;;;24.70;17.00;;;;;;;;;;5035413;28;20445;-77
2022/03/16 04:51:33;;;;;;;27.77;18.77;;;;;;;;;;5035690;28;20417;-77
2022/03/16 04:53:59;;;;;;;26.97;18.80;;;;;;;;;;5035544;28;20403;-76
2022/03/16 04:56:25;;;;;;;25.53;18.00;;;;;;;;;;5032477;28;20491;-76
2022/03/16 04:58:51;;;;;;;29.27;20.17;;;;;;;;;;5022191;28;20954;-76
2022/03/16 05:01:17;;;;;;;27.53;18.40;;;;;;;;;;5034568;28;20763;-77
2022/03/16 05:03:45;;;;;;;30.30;20.30;;;;;;;;;;5025878;28;21022;-77
2022/03/16 05:06:11;;;;;;;32.13;21.80;;;;;;;;;;5016107;28;20514;-76
2022/03/16 05:08:37;;;;;;;32.93;22.10;;;;;;;;;;5015925;28;20518;-77
2022/03/16 05:11:04;;;;;;;33.90;21.33;;;;;;;;;;5016393;28;20408;-76
2022/03/16 05:13:30;;;;;;;29.33;19.40;;;;;;;;;;5015623;28;20407;-77
2022/03/16 05:15:56;;;;;;;27.60;20.17;;;;;;;;;;5015869;28;20414;-76
2022/03/16 05:18:23;;;;;;;33.57;20.70;;;;;;;;;;5014353;28;20431;-76
2022/03/16 05:20:49;;;;;;;34.50;19.90;;;;;;;;;;5015597;28;20494;-76
2022/03/16 05:23:15;;;;;;;35.40;21.87;;;;;;;;;;5015758;28;20443;-76
2022/03/16 05:25:41;;;;;;;32.70;20.40;;;;;;;;;;5015667;28;20962;-76
2022/03/16 05:28:08;;;;;;;28.03;19.20;;;;;;;;;;5015595;28;20415;-76
2022/03/16 05:30:34;;;;;;;27.10;18.50;;;;;;;;;;5014667;28;20411;-76
2022/03/16 05:33:00;;;;;;;25.57;18.83;;;;;;;;;;5015411;28;20414;-77
2022/03/16 05:35:27;;;;;;;24.00;16.50;;;;;;;;;;5015722;28;20403;-77
2022/03/16 05:37:53;;;;;;;23.80;17.20;;;;;;;;;;5014052;28;20463;-77
2022/03/16 05:40:19;;;;;;;31.40;19.53;;;;;;;;;;5015175;28;20414;-77
2022/03/16 05:42:46;;;;;;;28.97;19.50;;;;;;;;;;5015162;28;20911;-77
2022/03/16 05:45:12;;;;;;;30.60;20.37;;;;;;;;;;5015273;28;20400;-76
2022/03/16 05:47:38;;;;;;;31.17;21.40;;;;;;;;;;5015307;28;20407;-77
2022/03/16 05:50:05;;;;;;;26.53;19.50;;;;;;;;;;5042898;23;20486;-77
2022/03/16 05:52:31;;;;;;;31.47;21.57;;;;;;;;;;5034103;28;20509;-78
2022/03/16 05:54:58;;;;;;;37.77;26.50;;;;;;;;;;5035785;28;20461;-77
2022/03/16 05:57:24;;;;;;;27.07;20.40;;;;;;;;;;5035673;28;20399;-77
2022/03/16 05:59:50;;;;;;;31.47;19.63;;;;;;;;;;5035752;28;20441;-78
2022/03/16 06:02:17;;;;;;;27.70;21.17;;;;;;;;;;5035366;28;20825;-78
2022/03/16 06:04:43;;;;;;;30.30;21.70;;;;;;;;;;5035131;28;20509;-77
2022/03/16 06:07:11;;;;;;;30.37;20.80;;;;;;;;;;5035003;28;20435;-78
2022/03/16 06:09:37;;;;;;;30.30;19.87;;;;;;;;;;5035061;28;20433;-78
2022/03/16 06:12:04;;;;;;;32.07;21.30;;;;;;;;;;5035096;28;20398;-78
2022/03/16 06:14:30;;;;;;;29.90;20.07;;;;;;;;;;5035200;28;20848;-78
2022/03/16 06:16:57;;;;;;;25.87;17.73;;;;;;;;;;5042895;28;20406;-77
2022/03/16 06:19:23;;;;;;;29.17;20.07;;;;;;;;;;5042363;28;20422;-77
2022/03/16 06:21:49;;;;;;;28.97;18.50;;;;;;;;;;5034357;28;20911;-77
2022/03/16 06:24:16;;;;;;;24.37;18.03;;;;;;;;;;5034192;28;20882;-77
2022/03/16 06:26:43;;;;;;;26.37;19.30;;;;;;;;;;5034766;28;20492;-78
2022/03/16 06:29:09;;;;;;;26.90;20.13;;;;;;;;;;5035073;28;20464;-77
2022/03/16 06:31:35;;;;;;;28.10;19.13;;;;;;;;;;5042424;28;20403;-77
2022/03/16 06:34:01;;;;;;;26.63;18.23;;;;;;;;;;5033902;28;20862;-77
2022/03/16 06:36:28;;;;;;;25.47;16.90;;;;;;;;;;5035195;28;20568;-77
2022/03/16 06:38:54;;;;;;;25.20;16.63;;;;;;;;;;5034506;28;20465;-77
2022/03/16 06:41:20;;;;;;;28.63;17.10;;;;;;;;;;5035070;28;20501;-78
2022/03/16 06:43:46;;;;;;;24.40;17.33;;;;;;;;;;5035480;28;20457;-78
2022/03/16 06:46:12;;;;;;;28.00;18.00;;;;;;;;;;5033714;28;20410;-78
2022/03/16 06:48:38;;;;;;;25.83;16.67;;;;;;;;;;5032560;28;20545;-75
2022/03/16 06:51:04;;;;;;;30.17;18.47;;;;;;;;;;5034685;28;20401;-75
2022/03/16 06:53:31;;;;;;;30.00;19.60;;;;;;;;;;5033292;28;20510;-75
2022/03/16 06:55:57;;;;;;;29.23;19.80;;;;;;;;;;5034875;28;20468;-76
2022/03/16 06:58:23;;;;;;;31.93;18.10;;;;;;;;;;5032852;28;20418;-77
2022/03/16 07:00:49;;;;;;;26.80;19.20;;;;;;;;;;5032994;28;20446;-75
2022/03/16 07:03:15;;;;;;;27.65;20.30;;;;;;;;;;5032356;28;20433;-78
2022/03/16 07:05:42;;;;;;;28.07;19.60;;;;;;;;;;5032588;28;20593;-76
2022/03/16 07:08:12;;;;;;;26.67;18.60;;;;;;;;;;5037728;28;20413;-76
2022/03/16 07:10:39;;;;;;;27.10;19.53;;;;;;;;;;5053233;28;20459;-76
2022/03/16 07:13:05;;;;;;;29.20;20.80;;;;;;;;;;5037906;28;20430;-76
2022/03/16 07:15:32;;;;;;;27.47;19.53;;;;;;;;;;5044016;28;20414;-76
2022/03/16 07:17:58;;;;;;;31.77;23.17;;;;;;;;;;5031306;28;20488;-76
2022/03/16 07:20:24;;;;;;;33.37;23.50;;;;;;;;;;5037277;28;20445;-76
2022/03/16 07:23:20;;;;;;;31.98;22.90;;;;;;;;;;5031279;28;20498;-76
2022/03/16 07:25:48;;;;;;;27.48;22.67;;;;;;;;;;5015857;28;20798;-76
2022/03/16 07:28:15;;;;;;;30.70;22.27;;;;;;;;;;5034212;28;20164;-75
2022/03/16 07:30:42;;;;;;;30.67;20.57;;;;;;;;;;5033393;28;20435;-78
2022/03/16 07:33:08;;;;;;;29.93;21.47;;;;;;;;;;5033203;28;20414;-77
2022/03/16 07:35:35;;;;;;;33.60;21.83;;;;;;;;;;5034059;28;20417;-76
2022/03/16 07:38:02;;;;;;;31.20;22.30;;;;;;;;;;5028141;28;20501;-77
2022/03/16 07:40:30;;;;;;;32.85;24.08;;;;;;;;;;5032795;28;20480;-76
2022/03/16 07:42:56;;;;;;;28.90;22.13;;;;;;;;;;5031891;28;20509;-76
2022/03/16 07:45:23;;;;;;;31.40;22.57;;;;;;;;;;5033058;28;20469;-77
2022/03/16 07:47:50;;;;;;;28.20;21.77;;;;;;;;;;5030363;28;20411;-77
2022/03/16 07:50:17;;;;;;;27.23;20.50;;;;;;;;;;5024931;28;20450;-76
2022/03/16 07:52:43;;;;;;;31.80;22.23;;;;;;;;;;5026662;28;20415;-77
2022/03/16 07:55:10;;;;;;;27.47;20.50;;;;;;;;;;5031535;28;20435;-77
2022/03/16 07:57:36;;;;;;;26.17;19.93;;;;;;;;;;5032090;28;20410;-77
2022/03/16 08:00:13;;;;;;;25.30;20.03;;;;;;;;;;5029764;28;20422;-76
2022/03/16 08:02:40;;;;;;;28.00;21.08;;;;;;;;;;5028692;28;20430;-77
2022/03/16 08:05:07;;;;;;;28.70;21.80;;;;;;;;;;5031176;28;20610;-77
2022/03/16 08:07:33;;;;;;;27.27;21.13;;;;;;;;;;5029240;28;20525;-76
2022/03/16 08:10:00;;;;;;;27.40;21.20;;;;;;;;;;5034505;28;20183;-77
2022/03/16 08:12:27;;;;;;;27.67;19.60;;;;;;;;;;5032051;28;20437;-77
2022/03/16 08:14:53;;;;;;;29.00;21.33;;;;;;;;;;5033284;28;20426;-77
2022/03/16 08:17:19;;;;;;;23.60;18.13;;;;;;;;;;5032082;28;20418;-78
2022/03/16 08:19:45;;;;;;;31.55;21.33;;;;;;;;;;5031751;28;20443;-78
2022/03/16 08:22:11;;;;;;;28.97;20.17;;;;;;;;;;5034343;28;20172;-78
2022/03/16 08:24:38;;;;;;;26.07;18.50;;;;;;;;;;5033878;28;20512;-77
2022/03/16 08:27:04;;;;;;;29.77;19.13;;;;;;;;;;5031043;28;21001;-77
2022/03/16 08:29:30;;;;;;;32.40;19.47;;;;;;;;;;5028249;28;20434;-77
2022/03/16 08:31:58;;;;;;;29.93;21.50;;;;;;;;;;5030011;28;20455;-78
2022/03/16 08:34:24;;;;;;;26.83;20.23;;;;;;;;;;5029517;28;20421;-77
2022/03/16 08:36:51;;;;;;;29.50;20.20;;;;;;;;;;5036012;28;20414;-77
2022/03/16 08:39:17;;;;;;;27.67;19.27;;;;;;;;;;5034134;28;20434;-77
2022/03/16 08:41:43;;;;;;;29.50;21.13;;;;;;;;;;5035623;28;20430;-77
2022/03/16 08:44:09;;;;;;;27.67;18.47;;;;;;;;;;5033403;28;20507;-78
2022/03/16 08:46:35;;;;;;;32.13;20.63;;;;;;;;;;5035656;28;20410;-77
2022/03/16 08:49:01;;;;;;;29.53;21.20;;;;;;;;;;5034588;28;20473;-77
2022/03/16 08:51:27;;;;;;;23.77;19.97;;;;;;;;;;5035630;28;20444;-76
2022/03/16 08:53:54;;;;;;;26.60;20.47;;;;;;;;;;5034884;28;20410;-78
2022/03/16 08:56:20;;;;;;;26.77;20.90;;;;;;;;;;5033094;28;20576;-77
2022/03/16 08:58:46;;;;;;;25.30;18.47;;;;;;;;;;5034387;28;20446;-77
2022/03/16 09:01:12;;;;;;;24.30;19.20;;;;;;;;;;5019755;28;20455;-77
2022/03/16 09:03:38;;;;;;;25.83;20.13;;;;;;;;;;5034530;28;20773;-77
2022/03/16 09:06:04;;;;;;;26.23;19.40;;;;;;;;;;5035379;28;20414;-77
2022/03/16 09:08:31;;;;;;;30.00;20.57;;;;;;;;;;5024830;28;21040;-77
2022/03/16 09:10:57;;;;;;;27.30;21.30;;;;;;;;;;5022595;28;20426;-78
2022/03/16 09:13:24;;;;;;;30.90;21.83;;;;;;;;;;5033421;28;20477;-77
2022/03/16 09:15:51;;;;;;;26.40;20.37;;;;;;;;;;5034202;28;20434;-78
2022/03/16 09:18:20;;;;;;;25.60;19.80;;;;;;;;;;5031247;28;20509;-78
2022/03/16 09:20:46;;;;;;;28.40;19.80;;;;;;;;;;5035061;28;20930;-77
2022/03/16 09:23:13;;;;;;;26.17;19.47;;;;;;;;;;5029592;28;20492;-78
2022/03/16 09:25:40;;;;;;;28.50;21.70;;;;;;;;;;5032572;28;20455;-77
2022/03/16 09:28:08;;;;;;;26.00;20.03;;;;;;;;;;5032452;28;20419;-77
2022/03/16 09:30:34;;;;;;;25.00;19.53;;;;;;;;;;5034813;28;20830;-77
2022/03/16 09:33:00;;;;;;;26.70;18.67;;;;;;;;;;5035413;28;20545;-78
2022/03/16 09:35:28;;;;;;;25.73;19.00;;;;;;;;;;5034899;28;20422;-78
2022/03/16 09:37:54;;;;;;;25.23;19.40;;;;;;;;;;5034762;28;20415;-77
2022/03/16 09:40:21;;;;;;;25.93;19.60;;;;;;;;;;5034562;28;20461;-78
2022/03/16 09:42:48;;;;;;;26.70;18.33;;;;;;;;;;5034319;28;20426;-77
2022/03/16 09:45:17;;;;;;;25.90;19.03;;;;;;;;;;5034664;28;20465;-78
2022/03/16 09:47:44;;;;;;;26.47;19.97;;;;;;;;;;5035557;28;20419;-78
2022/03/16 09:50:10;;;;;;;24.63;19.00;;;;;;;;;;5033829;28;20454;-76
2022/03/16 09:52:37;;;;;;;26.57;18.70;;;;;;;;;;5030960;28;20964;-77
2022/03/16 09:55:05;;;;;;;25.50;17.50;;;;;;;;;;5033257;28;20441;-77
2022/03/16 09:57:31;;;;;;;24.20;18.93;;;;;;;;;;5033315;28;20417;-77
2022/03/16 09:59:57;;;;;;;41.10;20.67;;;;;;;;;;5033289;28;21068;-77
2022/03/16 10:02:26;;;;;;;28.43;20.73;;;;;;;;;;5024496;28;20430;-77
2022/03/16 10:04:53;;;;;;;28.30;19.80;;;;;;;;;;5032995;28;20465;-77
2022/03/16 10:07:19;;;;;;;29.43;20.50;;;;;;;;;;5028313;28;20419;-77
2022/03/16 10:15:17;;;;;;;26.33;18.37;;;;;;;;;;5034234;28;20434;-79
2022/03/16 10:17:46;;;;;;;24.00;18.23;;;;;;;;;;5032118;28;20427;-78
2022/03/16 10:20:23;;;;;;;25.50;16.50;;;;;;;;;;5041359;28;20553;-77
2022/03/16 10:23:00;;;;;;;20.87;16.17;;;;;;;;;;5032057;28;20855;-77
2022/03/16 10:25:27;;;;;;;22.90;18.03;;;;;;;;;;5032359;28;20430;-77
2022/03/16 10:27:53;;;;;;;23.97;19.17;;;;;;;;;;5031834;28;20425;-77
2022/03/16 10:30:20;;;;;;;22.33;16.87;;;;;;;;;;5033843;28;20548;-77
2022/03/16 10:32:53;;;;;;;25.07;19.27;;;;;;;;;;5036251;28;20918;-77
2022/03/16 10:35:20;;;;;;;24.70;17.43;;;;;;;;;;5036381;28;20579;-78
2022/03/16 10:37:47;;;;;;;21.73;16.90;;;;;;;;;;5030693;28;20434;-76
2022/03/16 10:40:20;;;;;;;22.80;18.33;;;;;;;;;;5024022;28;20527;-76
2022/03/16 10:48:25;;;;;;;22.97;18.77;;;;;;;;;;5036871;28;20417;-76
2022/03/16 10:50:56;;;;;;;23.17;17.27;;;;;;;;;;5034931;28;20823;-77
2022/03/16 10:53:29;;;;;;;25.07;17.30;;;;;;;;;;5023944;28;21383;-77
2022/03/16 10:55:57;;;;;;;20.70;16.93;;;;;;;;;;5031803;28;20828;-77
2022/03/16 10:58:24;;;;;;;22.70;18.40;;;;;;;;;;5032438;28;20421;-77
2022/03/16 11:00:52;;;;;;;24.73;17.30;;;;;;;;;;5033558;28;20472;-78
2022/03/16 11:03:22;;;;;;;24.07;17.10;;;;;;;;;;5033717;28;20497;-77
2022/03/16 11:05:49;;;;;;;24.20;18.07;;;;;;;;;;5033833;28;20426;-78
2022/03/16 11:08:15;;;;;;;28.47;17.80;;;;;;;;;;5030589;28;20449;-78
2022/03/16 11:10:42;;;;;;;28.00;19.33;;;;;;;;;;5031633;28;20425;-77
2022/03/16 11:15:58;;;;;;;23.20;18.20;;;;;;;;;;5032834;28;20401;-78
2022/03/16 11:18:24;;;;;;;22.33;17.87;;;;;;;;;;5024294;28;20435;-78
2022/03/16 11:20:59;;;;;;;24.17;18.17;;;;;;;;;;5026372;28;20422;-77
2022/03/16 11:26:21;;;;;;;22.07;18.50;;;;;;;;;;5026894;28;20472;-77
2022/03/16 11:29:05;;;;;;;23.20;17.67;;;;;;;;;;5029398;28;20535;-77
2022/03/16 11:31:34;;;;;;;24.83;20.43;;;;;;;;;;5025871;28;20420;-79
2022/03/16 11:34:08;;;;;;;24.17;18.90;;;;;;;;;;5015742;28;20798;-77
2022/03/16 11:36:40;;;;;;;25.53;20.27;;;;;;;;;;5031495;28;20420;-77
2022/03/16 11:39:14;;;;;;;22.07;18.07;;;;;;;;;;5030947;28;20469;-79
2022/03/16 11:41:47;;;;;;;23.17;17.20;;;;;;;;;;5031010;28;20426;-77
2022/03/16 11:44:29;;;;;;;24.07;19.27;;;;;;;;;;5033444;28;20464;-77
2022/03/16 11:47:18;;;;;;;20.40;15.90;;;;;;;;;;5031170;28;20826;-78
2022/03/16 11:50:04;;;;;;;27.50;16.40;;;;;;;;;;5017990;28;20977;-77
2022/03/16 11:52:50;;;;;;;22.60;16.50;;;;;;;;;;5035243;28;20840;-76
2022/03/16 11:55:35;;;;;;;19.50;15.40;;;;;;;;;;5020852;28;20418;-77
2022/03/16 11:58:15;;;;;;;20.27;15.97;;;;;;;;;;5035291;28;20475;-77
2022/03/16 12:00:41;;;;;;;20.13;16.07;;;;;;;;;;5034071;28;20446;-78
2022/03/16 12:03:07;;;;;;;19.73;15.50;;;;;;;;;;5034889;28;20422;-76
2022/03/16 12:06:08;;;;;;;17.60;14.63;;;;;;;;;;5032831;28;20865;-77
2022/03/16 12:08:50;;;;;;;21.00;16.50;;;;;;;;;;4966681;28;20762;-78
2022/03/16 12:14:05;;;;;;;21.37;16.50;;;;;;;;;;5031831;28;20449;-77
2022/03/16 12:16:40;;;;;;;20.23;14.83;;;;;;;;;;5030176;28;20422;-76
2022/03/16 12:19:39;;;;;;;15.27;12.67;;;;;;;;;;5020917;28;20544;-76
2022/03/16 12:22:11;;;;;;;17.37;14.50;;;;;;;;;;4972993;28;20434;-77
2022/03/16 12:30:07;;;;;;;15.93;12.70;;;;;;;;;;5029858;28;20508;-75
2022/03/16 12:32:35;;;;;;;18.13;14.50;;;;;;;;;;5028484;28;20535;-76
2022/03/16 12:35:02;;;;;;;20.37;15.10;;;;;;;;;;5022774;28;20441;-77
2022/03/16 12:37:28;;;;;;;18.63;14.73;;;;;;;;;;5024531;28;20461;-77
2022/03/16 12:39:55;;;;;;;17.80;14.03;;;;;;;;;;5024804;28;20451;-76
2022/03/16 12:42:33;;;;;;;17.10;14.40;;;;;;;;;;5025432;28;20432;-78
2022/03/16 12:45:12;;;;;;;16.97;13.23;;;;;;;;;;5025491;28;20469;-77
2022/03/16 12:47:41;;;;;;;17.43;13.47;;;;;;;;;;5026603;28;20426;-77
2022/03/16 12:50:12;;;;;;;19.33;13.57;;;;;;;;;;5025641;28;20990;-78
2022/03/16 12:52:39;;;;;;;14.63;13.03;;;;;;;;;;5028456;28;20427;-77
2022/03/16 12:55:15;;;;;;;18.80;13.00;;;;;;;;;;5027896;28;20430;-77
2022/03/16 12:57:50;;;;;;;14.67;13.13;;;;;;;;;;5023385;28;20505;-76
2022/03/16 13:00:17;;;;;;;24.60;14.03;;;;;;;;;;5029404;28;22210;-76
2022/03/16 13:02:44;;;;;;;16.13;13.70;;;;;;;;;;5030489;28;20422;-77
2022/03/16 13:05:11;;;;;;;17.10;13.03;;;;;;;;;;5028245;28;20470;-77
2022/03/16 13:07:38;;;;;;;15.37;13.10;;;;;;;;;;5031581;28;20545;-77
2022/03/16 13:10:07;;;;;;;15.30;13.70;;;;;;;;;;5031020;28;20476;-78
2022/03/16 13:12:34;;;;;;;17.73;15.30;;;;;;;;;;5029736;28;20497;-76
2022/03/16 13:15:00;;;;;;;17.87;14.53;;;;;;;;;;5032410;28;20433;-77
2022/03/16 13:17:34;;;;;;;16.53;13.87;;;;;;;;;;5033717;28;20427;-78
2022/03/16 13:20:03;;;;;;;17.17;14.00;;;;;;;;;;5028195;28;20488;-78
2022/03/16 13:22:30;;;;;;;18.53;13.70;;;;;;;;;;5033428;28;20438;-78
2022/03/16 13:24:56;;;;;;;19.50;16.00;;;;;;;;;;5047764;28;20569;-77
2022/03/16 13:27:35;;;;;;;20.60;15.57;;;;;;;;;;5033342;28;20425;-76
2022/03/16 13:30:06;;;;;;;18.27;14.03;;;;;;;;;;5019121;28;20497;-77
2022/03/16 13:32:33;;;;;;;16.57;13.60;;;;;;;;;;5032408;28;20489;-76
2022/03/16 13:35:13;;;;;;;18.17;15.07;;;;;;;;;;5033785;28;20434;-76
2022/03/16 13:37:45;;;;;;;19.23;15.83;;;;;;;;;;5031688;28;20438;-76
2022/03/16 13:40:12;;;;;;;15.17;13.57;;;;;;;;;;5032213;28;20463;-76
2022/03/16 13:42:39;;;;;;;16.20;14.50;;;;;;;;;;5031519;28;20503;-77
2022/03/16 13:45:15;;;;;;;17.20;14.90;;;;;;;;;;5032453;28;20458;-75
2022/03/16 13:47:42;;;;;;;17.27;15.20;;;;;;;;;;5026922;28;20422;-77
2022/03/16 13:50:19;;;;;;;18.50;14.17;;;;;;;;;;5026393;28;20462;-77
2022/03/16 13:52:45;;;;;;;18.03;15.43;;;;;;;;;;5026074;28;20735;-76
2022/03/16 13:55:12;;;;;;;15.63;13.97;;;;;;;;;;5026682;28;20438;-76
2022/03/16 13:57:42;;;;;;;15.30;13.63;;;;;;;;;;5025860;28;20525;-77
2022/03/16 14:00:10;;;;;;;20.27;15.37;;;;;;;;;;5023177;28;20477;-76
2022/03/16 14:02:36;;;;;;;17.60;14.73;;;;;;;;;;5027023;28;20426;-76
2022/03/16 14:05:04;;;;;;;17.40;15.40;;;;;;;;;;5026809;28;20505;-77
2022/03/16 14:07:33;;;;;;;18.17;14.67;;;;;;;;;;5025692;28;20513;-76
2022/03/16 14:10:00;;;;;;;16.40;13.90;;;;;;;;;;5029060;28;20835;-76
2022/03/16 14:12:31;;;;;;;17.77;15.60;;;;;;;;;;5032435;28;20426;-76
2022/03/16 14:15:10;;;;;;;19.10;15.07;;;;;;;;;;5031413;28;20433;-75
2022/03/16 14:17:40;;;;;;;20.57;14.83;;;;;;;;;;5032630;28;20953;-77
2022/03/16 14:20:10;;;;;;;18.80;13.97;;;;;;;;;;5031695;28;20541;-77
2022/03/16 14:22:36;;;;;;;17.50;14.23;;;;;;;;;;5030074;23;20487;-75
2022/03/16 14:25:19;;;;;;;18.90;15.70;;;;;;;;;;5005788;28;20466;-75
2022/03/16 14:27:48;;;;;;;20.70;15.73;;;;;;;;;;5008765;28;20997;-78
2022/03/16 14:30:16;;;;;;;16.47;14.60;;;;;;;;;;5008519;28;20485;-78
2022/03/16 14:32:42;;;;;;;19.03;15.90;;;;;;;;;;4992818;28;20571;-76
2022/03/16 14:35:09;;;;;;;16.80;14.00;;;;;;;;;;4991385;28;20435;-76
2022/03/16 14:37:35;;;;;;;19.03;15.63;;;;;;;;;;4991433;28;20431;-76
2022/03/16 14:40:01;;;;;;;19.10;15.10;;;;;;;;;;4992365;28;20509;-76
2022/03/16 14:42:27;;;;;;;16.67;14.60;;;;;;;;;;4992616;28;20512;-76
2022/03/16 14:44:53;;;;;;;18.07;15.23;;;;;;;;;;4993466;28;20475;-76
2022/03/16 14:47:20;;;;;;;20.37;16.27;;;;;;;;;;4992776;28;20431;-76